EDT,Max TemperatureF,Mean TemperatureF,Min TemperatureF,Max Dew PointF,MeanDew PointF,Min DewpointF,Max Humidity, Mean Humidity, Min Humidity, Max Sea Level PressureIn, Mean Sea Level PressureIn, Min Sea Level PressureIn, Max VisibilityMiles, Mean VisibilityMiles, Min VisibilityMiles, Max Wind SpeedMPH, Mean Wind SpeedMPH, Max Gust SpeedMPH,PrecipitationIn, CloudCover, Events, WindDirDegrees
2013-10-1,74,63,51,61,55,49,93,73,53,30.00,29.95,29.87,10,10,7,15,6,20,0.00,3,,228
2013-10-2,77,64,50,61,52,43,90,62,33,30.00,29.88,29.84,10,10,6,20,10,26,0.00,0,,231
2013-10-3,72,58,44,50,46,42,93,69,44,30.14,30.07,30.02,10,10,7,10,3,14,0.00,0,,227
2013-10-4,62,54,46,51,47,45,100,80,60,30.12,30.09,30.06,10,8,1,15,6,21,T,5,Rain,53
2013-10-5,66,58,50,46,43,38,71,55,39,30.17,30.14,30.11,10,10,10,15,7,18,0.00,4,,50
2013-10-6,63,56,49,56,46,35,100,77,54,30.15,30.00,29.83,10,8,1,20,10,24,0.52,6,Rain,66
2013-10-7,78,65,51,61,55,40,93,74,54,29.91,29.70,29.57,10,8,2,28,15,43,0.50,5,Rain,211
2013-10-8,59,48,36,40,38,35,92,68,43,30.38,30.26,29.96,10,9,2,16,5,23,0.00,1,,249
2013-10-9,66,50,33,44,37,31,100,72,44,30.46,30.40,30.32,10,7,0,13,2,16,0.00,0,Fog,234
2013-10-10,68,52,35,47,38,34,100,69,37,30.35,30.29,30.18,10,5,0,5,0,6,0.00,1,Fog,305
2013-10-11,71,53,34,48,38,33,100,69,37,30.22,30.19,30.15,10,5,0,12,2,13,0.00,2,Fog,45
2013-10-12,71,55,38,53,45,36,100,76,51,30.30,30.24,30.18,10,7,0,12,4,15,0.00,2,Fog,70
2013-10-13,70,55,39,53,44,37,100,77,53,30.37,30.30,30.26,10,5,0,9,2,12,0.00,3,Fog,70
2013-10-14,66,56,45,56,51,44,93,77,60,30.31,30.27,30.24,10,7,1,14,5,17,0.13,4,Rain,222
2013-10-15,64,52,40,51,46,40,100,80,60,30.30,30.24,30.03,10,5,0,9,1,10,0.00,4,Fog,121
2013-10-16,69,60,50,56,51,45,96,72,48,30.01,29.87,29.75,10,8,3,22,6,28,0.30,4,Rain,196
2013-10-17,65,58,50,56,51,47,96,76,56,29.83,29.78,29.71,10,9,4,17,7,21,0.28,6,Rain,224
2013-10-18,60,52,44,50,46,41,93,72,51,29.87,29.74,29.67,10,10,7,23,9,31,0.03,7,Rain,234
2013-10-19,62,52,41,47,43,39,93,72,51,29.88,29.77,29.58,10,10,7,23,7,30,0.11,5,Rain,195
2013-10-20,56,46,35,46,38,31,89,65,41,29.99,29.78,29.58,10,10,6,24,11,31,T,3,Rain,234
2013-10-21,63,48,33,44,37,32,96,68,39,30.02,29.92,29.76,10,10,10,21,5,28,T,5,,190
2013-10-22,60,48,36,48,37,27,86,62,38,29.78,29.73,29.68,10,10,2,24,12,31,0.13,5,Rain,225
2013-10-23,49,39,29,34,31,24,92,69,46,29.77,29.73,29.68,10,10,10,17,7,24,T,3,,238
2013-10-24,45,37,28,34,29,24,92,75,57,29.93,29.77,29.71,10,10,10,21,10,28,T,6,Rain,248
2013-10-25,44,35,26,30,27,24,92,71,49,30.14,30.08,29.94,10,10,10,17,8,32,0.00,3,,272
2013-10-26,42,36,30,37,34,25,92,81,70,30.10,29.87,29.74,10,9,4,28,13,37,0.12,8,Rain,201
2013-10-27,46,40,34,38,34,29,92,71,49,30.03,29.87,29.73,10,10,7,17,9,23,0.05,7,Rain,241
2013-10-28,45,34,22,39,29,18,85,61,36,30.45,30.18,29.96,10,10,10,24,8,32,0.03,5,Rain,280
2013-10-29,40,30,20,27,21,17,92,68,44,30.53,30.46,30.36,10,10,10,12,2,15,0.00,1,,240
2013-10-30,42,35,28,36,31,22,96,83,69,30.34,30.25,30.19,10,8,0,13,5,15,0.01,6,Fog-Snow,214
2013-10-31,61,46,31,56,46,30,96,88,79,30.17,29.83,29.47,10,6,1,18,7,28,0.45,6,Rain,167